createdAt,value
2023-04-07T00:02:44.379Z,5.70
2023-04-07T00:05:33.637Z,5.80
2023-04-07T00:08:23.767Z,5.80
2023-04-07T00:11:13.093Z,5.80
2023-04-07T00:14:02.115Z,5.70
2023-04-07T00:16:50.823Z,5.90
2023-04-07T00:19:39.531Z,5.80
2023-04-07T00:22:28.541Z,5.80
2023-04-07T00:25:19.057Z,5.90
2023-04-07T00:28:07.804Z,5.90
2023-04-07T00:30:56.623Z,5.90
2023-04-07T00:33:45.403Z,6.00
2023-04-07T00:36:34.273Z,6.10
2023-04-07T00:39:23.056Z,6.10
2023-04-07T00:42:13.291Z,6.20
2023-04-07T00:45:02.125Z,6.00
2023-04-07T00:47:50.983Z,6.20
2023-04-07T00:50:39.802Z,6.00
2023-04-07T00:53:28.592Z,6.00
2023-04-07T00:56:17.452Z,6.00
2023-04-07T00:59:07.658Z,6.10
2023-04-07T01:02:04.092Z,6.20
2023-04-07T01:04:57.609Z,6.20
2023-04-07T01:07:56.009Z,6.10
2023-04-07T01:10:51.629Z,6.10
2023-04-07T01:13:47.445Z,6.10
2023-04-07T01:16:49.361Z,6.20
2023-04-07T01:19:44.572Z,6.20
2023-04-07T01:22:38.730Z,6.30
2023-04-07T01:25:43.955Z,6.40
2023-04-07T01:28:51.075Z,6.30
2023-04-07T01:31:43.226Z,6.40
2023-04-07T01:34:34.014Z,6.40
2023-04-07T01:37:24.260Z,6.20
2023-04-07T01:40:15.673Z,6.30
2023-04-07T01:43:04.886Z,6.20
2023-04-07T01:45:55.119Z,6.30
2023-04-07T01:48:46.887Z,6.30
2023-04-07T01:51:36.941Z,6.30
2023-04-07T01:54:26.303Z,6.30
2023-04-07T01:57:15.518Z,6.30
2023-04-07T02:00:05.305Z,6.30
2023-04-07T02:03:10.469Z,6.40
2023-04-07T02:06:08.731Z,6.40
2023-04-07T02:09:06.910Z,6.40
2023-04-07T02:11:58.596Z,6.40
2023-04-07T02:14:48.095Z,6.40
2023-04-07T02:17:41.251Z,6.40
2023-04-07T02:20:31.195Z,6.50
2023-04-07T02:23:21.379Z,6.50
2023-04-07T02:26:10.543Z,6.50
2023-04-07T02:28:59.406Z,6.60
2023-04-07T02:31:48.146Z,6.70
2023-04-07T02:34:38.193Z,6.70
2023-04-07T02:37:28.703Z,6.60
2023-04-07T02:40:19.009Z,6.60
2023-04-07T02:43:07.700Z,6.60
2023-04-07T02:45:56.562Z,6.70
2023-04-07T02:48:45.758Z,6.70
2023-04-07T02:51:34.676Z,6.70
2023-04-07T02:54:23.486Z,6.70
2023-04-07T02:57:14.252Z,6.60
2023-04-07T03:00:03.949Z,6.60
2023-04-07T03:03:08.823Z,6.70
2023-04-07T03:06:00.952Z,6.70
2023-04-07T03:08:49.928Z,6.60
2023-04-07T03:11:39.669Z,6.60
2023-04-07T03:14:29.839Z,6.60
2023-04-07T03:17:18.839Z,6.70
2023-04-07T03:20:11.169Z,6.70
2023-04-07T03:23:00.846Z,6.80
2023-04-07T03:25:51.689Z,6.90
2023-04-07T03:28:40.987Z,6.90
2023-04-07T03:31:31.755Z,6.90
2023-04-07T03:34:20.862Z,6.90
2023-04-07T03:37:09.832Z,6.90
2023-04-07T03:39:59.725Z,6.90
2023-04-07T03:42:52.840Z,6.90
2023-04-07T03:45:41.832Z,6.90
2023-04-07T03:48:32.934Z,6.90
2023-04-07T03:51:29.794Z,6.90
2023-04-07T03:54:20.771Z,6.90
2023-04-07T03:57:09.728Z,6.90
2023-04-07T04:00:04.623Z,6.90
2023-04-07T04:03:05.809Z,6.90
2023-04-07T04:05:58.303Z,6.90
2023-04-07T04:08:51.116Z,6.90
2023-04-07T04:11:41.678Z,6.90
2023-04-07T04:14:31.084Z,6.90
2023-04-07T04:17:23.020Z,7.00
2023-04-07T04:20:12.595Z,7.00
2023-04-07T04:23:09.276Z,7.00
2023-04-07T04:26:00.356Z,7.00
2023-04-07T04:28:50.413Z,7.10
2023-04-07T04:31:41.718Z,7.10
2023-04-07T04:34:32.303Z,7.00
2023-04-07T04:37:21.624Z,7.10
2023-04-07T04:40:13.283Z,7.10
2023-04-07T04:43:06.936Z,7.10
2023-04-07T04:45:58.294Z,7.10
2023-04-07T04:48:49.991Z,7.00
2023-04-07T04:51:39.969Z,7.10
2023-04-07T04:54:35.453Z,7.10
2023-04-07T04:57:25.813Z,7.10
2023-04-07T05:00:15.736Z,7.10
2023-04-07T05:03:07.140Z,7.10
2023-04-07T05:06:00.163Z,7.10
2023-04-07T05:08:49.168Z,7.20
2023-04-07T05:11:42.286Z,7.30
2023-04-07T05:14:33.106Z,7.20
2023-04-07T05:17:27.210Z,7.20
2023-04-07T05:20:16.523Z,7.20
2023-04-07T05:23:05.456Z,7.20
2023-04-07T05:25:55.869Z,7.20
2023-04-07T05:28:45.453Z,7.20
2023-04-07T05:31:41.559Z,7.20
2023-04-07T05:34:34.489Z,7.20
2023-04-07T05:37:23.194Z,7.30
2023-04-07T05:40:14.086Z,7.30
2023-04-07T05:43:03.434Z,7.30
2023-04-07T05:45:54.154Z,7.30
2023-04-07T05:48:45.590Z,7.30
2023-04-07T05:51:35.633Z,7.30
2023-04-07T05:54:30.355Z,7.40
2023-04-07T05:57:20.168Z,7.30
2023-04-07T06:00:12.078Z,7.50
2023-04-07T06:03:04.049Z,7.50
2023-04-07T06:06:01.524Z,7.50
2023-04-07T06:08:50.925Z,7.60
2023-04-07T06:11:39.784Z,7.60
2023-04-07T06:14:28.727Z,7.50
2023-04-07T06:17:17.603Z,7.50
2023-04-07T06:20:09.811Z,7.60
2023-04-07T06:22:59.950Z,7.60
2023-04-07T06:25:52.045Z,7.60
2023-04-07T06:28:41.272Z,7.70
2023-04-07T06:31:30.449Z,7.70
2023-04-07T06:34:19.503Z,7.70
2023-04-07T06:37:08.667Z,7.70
2023-04-07T06:39:58.908Z,7.70
2023-04-07T06:42:47.655Z,7.70
2023-04-07T06:45:47.697Z,7.70
2023-04-07T06:48:36.517Z,7.80
2023-04-07T06:51:25.148Z,7.90
2023-04-07T06:54:14.940Z,8.00
2023-04-07T06:57:06.862Z,8.00
2023-04-07T06:59:55.751Z,7.90
2023-04-07T07:02:44.646Z,8.00
2023-04-07T07:05:33.967Z,8.00
2023-04-07T07:08:22.968Z,8.20
2023-04-07T07:11:12.181Z,8.20
2023-04-07T07:14:02.825Z,8.30
2023-04-07T07:16:51.927Z,8.40
2023-04-07T07:19:40.650Z,8.40
2023-04-07T07:22:29.391Z,8.30
2023-04-07T07:25:18.802Z,8.40
2023-04-07T07:28:07.678Z,8.50
2023-04-07T07:30:58.278Z,8.50
2023-04-07T07:33:49.233Z,8.40
2023-04-07T07:36:38.378Z,8.50
2023-04-07T07:39:27.255Z,8.50
2023-04-07T07:42:16.451Z,8.60
2023-04-07T07:45:05.806Z,8.60
2023-04-07T07:47:56.120Z,8.50
2023-04-07T07:50:45.915Z,8.60
2023-04-07T07:53:35.032Z,8.70
2023-04-07T07:56:24.075Z,8.70
2023-04-07T07:59:12.993Z,8.70
2023-04-07T08:02:02.187Z,8.70
2023-04-07T08:04:52.542Z,8.80
2023-04-07T08:07:43.223Z,9.00
2023-04-07T08:10:32.252Z,9.00
2023-04-07T08:13:21.017Z,9.10
2023-04-07T08:16:10.023Z,9.20
2023-04-07T08:18:58.912Z,9.10
2023-04-07T08:21:49.820Z,9.20
2023-04-07T08:24:38.795Z,9.40
2023-04-07T08:27:27.589Z,9.40
2023-04-07T08:30:17.031Z,9.70
2023-04-07T08:33:07.842Z,9.70
2023-04-07T08:35:56.989Z,9.70
2023-04-07T08:38:47.204Z,9.60
2023-04-07T08:41:39.536Z,9.60
2023-04-07T08:44:31.124Z,9.50
2023-04-07T08:47:20.270Z,9.50
2023-04-07T08:50:11.272Z,9.60
2023-04-07T08:53:06.386Z,9.60
2023-04-07T08:55:58.117Z,9.70
2023-04-07T08:58:47.995Z,9.80
2023-04-07T09:01:38.193Z,9.90
2023-04-07T09:04:27.728Z,9.70
2023-04-07T09:07:16.564Z,9.60
2023-04-07T09:10:06.576Z,9.60
2023-04-07T09:12:56.734Z,9.70
2023-04-07T09:15:45.699Z,9.60
2023-04-07T09:18:34.965Z,9.70
2023-04-07T09:21:23.834Z,9.80
2023-04-07T09:24:23.404Z,9.90
2023-04-07T09:27:17.517Z,10.00
2023-04-07T09:30:16.041Z,10.10
2023-04-07T09:33:05.242Z,10.00
2023-04-07T09:35:54.827Z,10.10
2023-04-07T09:38:46.206Z,10.20
2023-04-07T09:41:35.012Z,10.00
2023-04-07T09:44:24.735Z,10.00
2023-04-07T09:47:15.332Z,10.00
2023-04-07T09:50:07.384Z,10.20
2023-04-07T09:52:56.694Z,10.30
2023-04-07T09:55:46.404Z,10.40
2023-04-07T09:58:35.352Z,10.30
2023-04-07T10:01:24.176Z,10.50
2023-04-07T10:04:14.897Z,10.50
2023-04-07T10:07:04.571Z,10.50
2023-04-07T10:09:53.693Z,10.60
2023-04-07T10:12:43.674Z,10.60
2023-04-07T10:15:33.151Z,10.50
2023-04-07T10:18:23.650Z,10.60
2023-04-07T10:21:16.399Z,10.60
2023-04-07T10:24:20.198Z,10.70
2023-04-07T10:27:14.289Z,10.70
2023-04-07T10:30:05.201Z,10.90
2023-04-07T10:32:55.517Z,10.90
2023-04-07T10:36:07.414Z,10.90
2023-04-07T10:39:22.925Z,10.90
2023-04-07T10:42:48.954Z,10.90
2023-04-07T10:45:54.418Z,10.90
2023-04-07T10:48:43.318Z,10.90
2023-04-07T10:51:32.319Z,11.00
2023-04-07T10:54:29.025Z,11.10
2023-04-07T10:57:18.559Z,11.20
2023-04-07T11:00:17.931Z,11.20
2023-04-07T11:03:14.155Z,11.20
2023-04-07T11:06:08.507Z,11.30
2023-04-07T11:08:57.584Z,11.30
2023-04-07T11:11:48.884Z,11.30
2023-04-07T11:14:38.238Z,11.50
2023-04-07T11:17:28.286Z,11.60
2023-04-07T11:20:17.079Z,11.60
2023-04-07T11:23:05.803Z,11.70
2023-04-07T11:26:01.369Z,11.70
2023-04-07T11:28:53.014Z,11.80
2023-04-07T11:31:41.945Z,11.70
2023-04-07T11:34:31.956Z,11.80
2023-04-07T11:37:21.768Z,11.70
2023-04-07T11:40:13.019Z,11.80
2023-04-07T11:43:02.658Z,11.80
2023-04-07T11:46:10.927Z,11.70
2023-04-07T11:49:11.131Z,11.80
2023-04-07T11:52:01.102Z,11.80
2023-04-07T11:54:50.699Z,11.70
2023-04-07T11:57:39.506Z,11.70
2023-04-07T12:00:28.268Z,11.80
2023-04-07T12:03:18.987Z,11.70
2023-04-07T12:06:08.675Z,11.50
2023-04-07T12:08:57.475Z,11.40
2023-04-07T12:11:51.123Z,11.40
2023-04-07T12:14:40.019Z,11.60
2023-04-07T12:17:28.854Z,11.60
2023-04-07T12:20:19.317Z,11.60
2023-04-07T12:23:08.060Z,11.70
2023-04-07T12:25:56.792Z,11.80
2023-04-07T12:28:45.543Z,11.90
2023-04-07T12:31:34.647Z,11.80
2023-04-07T12:34:23.416Z,12.00
2023-04-07T12:37:13.703Z,12.10
2023-04-07T12:40:02.460Z,11.90
2023-04-07T12:42:51.206Z,11.90
2023-04-07T12:45:40.058Z,12.00
2023-04-07T12:48:28.848Z,12.10
2023-04-07T12:51:17.691Z,12.20
2023-04-07T12:54:08.106Z,12.40
2023-04-07T12:56:57.542Z,12.30
2023-04-07T12:59:46.603Z,12.30
2023-04-07T13:02:38.279Z,12.20
2023-04-07T13:05:27.502Z,12.30
2023-04-07T13:08:16.426Z,12.30
2023-04-07T13:11:07.294Z,12.30
2023-04-07T13:13:57.928Z,12.30
2023-04-07T13:16:48.832Z,12.50
2023-04-07T13:19:37.750Z,12.30
2023-04-07T13:22:26.813Z,12.20
2023-04-07T13:25:16.099Z,12.30
2023-04-07T13:28:06.761Z,12.20
2023-04-07T13:30:55.636Z,12.00
2023-04-07T13:33:44.492Z,11.90
2023-04-07T13:36:33.809Z,12.00
2023-04-07T13:39:22.730Z,11.80
2023-04-07T13:42:12.698Z,11.80
2023-04-07T13:45:03.328Z,11.90
2023-04-07T13:47:52.434Z,12.00
2023-04-07T13:50:42.224Z,12.00
2023-04-07T13:53:31.012Z,12.00
2023-04-07T13:56:20.045Z,12.10
2023-04-07T13:59:09.587Z,11.90
2023-04-07T14:02:00.494Z,12.20
2023-04-07T14:04:49.560Z,12.00
2023-04-07T14:07:38.483Z,11.90
2023-04-07T14:10:27.414Z,12.10
2023-04-07T14:13:16.880Z,12.20
2023-04-07T14:16:06.515Z,12.30
2023-04-07T14:19:22.489Z,12.10
2023-04-07T14:22:11.309Z,12.30
2023-04-07T14:25:00.833Z,12.20
2023-04-07T14:27:49.981Z,11.90
2023-04-07T14:30:39.309Z,11.90
2023-04-07T14:33:28.070Z,11.80
2023-04-07T14:36:18.415Z,11.80
2023-04-07T14:39:07.256Z,11.90
2023-04-07T14:41:56.179Z,11.60
2023-04-07T14:44:44.975Z,11.60
2023-04-07T14:47:33.947Z,11.60
2023-04-07T14:50:23.966Z,11.70
2023-04-07T14:53:14.595Z,11.60
2023-04-07T14:56:06.007Z,11.50
2023-04-07T14:58:54.884Z,11.80
2023-04-07T15:01:43.627Z,11.70
2023-04-07T15:04:32.624Z,11.60
2023-04-07T15:07:21.469Z,11.50
2023-04-07T15:10:14.500Z,11.50
2023-04-07T15:13:03.944Z,11.40
2023-04-07T15:15:52.852Z,11.50
2023-04-07T15:18:44.887Z,11.40
2023-04-07T15:21:33.944Z,11.20
2023-04-07T15:24:22.817Z,11.10
2023-04-07T15:27:13.184Z,11.30
2023-04-07T15:30:02.322Z,11.40
2023-04-07T15:33:00.783Z,11.30
2023-04-07T15:35:49.635Z,11.50
2023-04-07T15:38:40.507Z,11.30
2023-04-07T15:41:29.345Z,11.40
2023-04-07T15:44:20.244Z,11.30
2023-04-07T15:47:11.901Z,11.20
2023-04-07T15:50:00.982Z,11.20
2023-04-07T15:52:49.793Z,11.20
2023-04-07T15:55:38.848Z,11.20
2023-04-07T15:58:27.568Z,11.20
2023-04-07T16:01:17.862Z,11.10
2023-04-07T16:04:06.850Z,11.10
2023-04-07T16:06:56.094Z,11.20
2023-04-07T16:09:44.818Z,11.20
2023-04-07T16:12:34.511Z,11.40
2023-04-07T16:15:38.759Z,11.10
2023-04-07T16:18:30.634Z,11.20
2023-04-07T16:21:19.494Z,11.10
2023-04-07T16:24:08.267Z,11.10
2023-04-07T16:26:57.222Z,11.00
2023-04-07T16:29:45.956Z,11.00
2023-04-07T16:32:34.889Z,11.10
2023-04-07T16:35:25.134Z,10.90
2023-04-07T16:38:13.990Z,10.80
2023-04-07T16:41:04.824Z,10.70
2023-04-07T16:43:53.697Z,10.60
2023-04-07T16:46:42.391Z,10.70
2023-04-07T16:49:31.283Z,10.50
2023-04-07T16:52:21.511Z,10.50
2023-04-07T16:55:13.779Z,10.50
2023-04-07T16:58:02.621Z,10.40
2023-04-07T17:00:51.921Z,10.40
2023-04-07T17:03:41.626Z,10.30
2023-04-07T17:06:31.130Z,10.40
2023-04-07T17:09:21.514Z,10.50
2023-04-07T17:12:11.105Z,10.40
2023-04-07T17:14:59.872Z,10.10
2023-04-07T17:17:48.667Z,10.10
2023-04-07T17:20:37.552Z,10.10
2023-04-07T17:23:28.371Z,10.20
2023-04-07T17:26:18.681Z,10.20
2023-04-07T17:29:07.430Z,10.10
2023-04-07T17:31:57.231Z,10.10
2023-04-07T17:34:46.162Z,10.20
2023-04-07T17:37:35.123Z,10.10
2023-04-07T17:40:24.559Z,10.10
2023-04-07T17:43:14.712Z,10.10
2023-04-07T17:46:04.697Z,10.00
2023-04-07T17:48:54.535Z,10.00
2023-04-07T17:51:43.200Z,10.10
2023-04-07T17:54:32.097Z,10.00
2023-04-07T17:57:20.893Z,10.00
2023-04-07T18:00:12.393Z,9.90
2023-04-07T18:03:04.259Z,9.90
2023-04-07T18:05:53.499Z,9.90
2023-04-07T18:08:42.920Z,10.00
2023-04-07T18:11:32.549Z,9.90
2023-04-07T18:14:21.621Z,9.90
2023-04-07T18:17:13.015Z,10.00
2023-04-07T18:20:02.249Z,9.80
2023-04-07T18:22:52.799Z,9.80
2023-04-07T18:25:41.866Z,9.70
2023-04-07T18:28:31.308Z,9.80
2023-04-07T18:31:20.400Z,9.80
2023-04-07T18:34:11.511Z,9.90
2023-04-07T18:37:00.414Z,9.90
2023-04-07T18:39:49.824Z,9.80
2023-04-07T18:42:38.848Z,9.80
2023-04-07T18:45:28.020Z,9.60
2023-04-07T18:48:17.805Z,9.50
2023-04-07T18:51:08.767Z,9.50
2023-04-07T18:53:57.718Z,9.60
2023-04-07T18:56:46.592Z,9.60
2023-04-07T18:59:35.502Z,9.60
2023-04-07T19:02:24.598Z,9.50
2023-04-07T19:05:14.241Z,9.30
2023-04-07T19:08:04.555Z,9.50
2023-04-07T19:10:53.373Z,9.30
2023-04-07T19:13:42.515Z,9.30
2023-04-07T19:16:31.443Z,9.40
2023-04-07T19:19:20.447Z,9.30
2023-04-07T19:22:09.855Z,9.30
2023-04-07T19:25:00.122Z,9.30
2023-04-07T19:27:48.862Z,9.30
2023-04-07T19:30:37.723Z,9.50
2023-04-07T19:33:26.556Z,9.40
2023-04-07T19:36:15.557Z,9.40
2023-04-07T19:39:05.608Z,9.40
2023-04-07T19:41:56.267Z,9.20
2023-04-07T19:44:44.964Z,9.20
2023-04-07T19:47:34.113Z,9.30
2023-04-07T19:50:23.076Z,9.30
2023-04-07T19:53:15.996Z,9.30
2023-04-07T19:56:05.456Z,9.20
2023-04-07T19:58:55.734Z,9.00
2023-04-07T20:01:44.798Z,9.00
2023-04-07T20:04:34.583Z,8.90
2023-04-07T20:07:23.319Z,8.90
2023-04-07T20:10:15.873Z,9.00
2023-04-07T20:13:06.388Z,8.90
2023-04-07T20:15:56.763Z,8.90
2023-04-07T20:18:45.519Z,8.90
2023-04-07T20:21:34.363Z,8.80
2023-04-07T20:24:23.256Z,8.70
2023-04-07T20:27:14.694Z,8.90
2023-04-07T20:30:04.137Z,8.80
2023-04-07T20:32:54.780Z,8.80
2023-04-07T20:35:44.041Z,8.90
2023-04-07T20:38:33.522Z,9.00
2023-04-07T20:41:23.842Z,8.70
2023-04-07T20:44:13.456Z,8.80
2023-04-07T20:47:09.021Z,8.70
2023-04-07T20:50:00.604Z,8.70
2023-04-07T20:52:49.555Z,8.80
2023-04-07T20:55:38.503Z,8.80
2023-04-07T20:58:27.717Z,8.60
2023-04-07T21:01:16.768Z,8.70
2023-04-07T21:04:06.087Z,8.60
2023-04-07T21:06:56.363Z,8.60
2023-04-07T21:09:45.206Z,8.60
2023-04-07T21:12:34.057Z,8.40
2023-04-07T21:15:23.108Z,8.40
2023-04-07T21:18:12.548Z,8.40
2023-04-07T21:21:03.160Z,8.20
2023-04-07T21:23:53.245Z,8.10
2023-04-07T21:26:42.007Z,8.00
2023-04-07T21:29:32.346Z,8.00
2023-04-07T21:32:21.146Z,8.10
2023-04-07T21:35:13.288Z,8.10
2023-04-07T21:38:02.200Z,8.00
2023-04-07T21:40:52.414Z,8.10
2023-04-07T21:43:41.257Z,8.20
2023-04-07T21:46:30.244Z,8.00
2023-04-07T21:49:22.263Z,8.20
2023-04-07T21:52:11.109Z,8.10
2023-04-07T21:54:59.858Z,8.00
2023-04-07T21:57:50.911Z,8.10
2023-04-07T22:00:39.879Z,8.10
2023-04-07T22:03:29.677Z,8.30
2023-04-07T22:06:18.922Z,8.20
2023-04-07T22:09:08.541Z,8.10
2023-04-07T22:11:57.507Z,8.20
2023-04-07T22:14:47.596Z,8.20
2023-04-07T22:17:36.913Z,8.00
2023-04-07T22:20:27.248Z,8.10
2023-04-07T22:23:16.043Z,8.10
2023-04-07T22:26:06.027Z,8.10
2023-04-07T22:28:54.755Z,8.10
2023-04-07T22:31:44.844Z,8.20
2023-04-07T22:34:33.774Z,8.20
2023-04-07T22:37:22.551Z,8.20
2023-04-07T22:40:12.469Z,8.10
2023-04-07T22:43:01.462Z,8.00
2023-04-07T22:45:50.239Z,8.00
2023-04-07T22:48:40.577Z,8.10
2023-04-07T22:51:30.223Z,8.00
2023-04-07T22:54:19.634Z,8.10
2023-04-07T22:57:08.533Z,8.00
2023-04-07T22:59:57.392Z,8.10
2023-04-07T23:02:46.886Z,8.10
2023-04-07T23:05:37.300Z,8.00
2023-04-07T23:08:26.265Z,8.10
2023-04-07T23:11:15.838Z,8.00
2023-04-07T23:14:06.296Z,8.00
2023-04-07T23:16:56.338Z,8.10
2023-04-07T23:19:45.437Z,8.10
2023-04-07T23:22:36.163Z,8.10
2023-04-07T23:25:25.382Z,8.20
2023-04-07T23:28:14.409Z,8.30
2023-04-07T23:31:03.750Z,8.20
2023-04-07T23:33:52.595Z,8.10
2023-04-07T23:36:42.191Z,8.10
2023-04-07T23:39:32.431Z,8.10
2023-04-07T23:42:21.136Z,8.00
2023-04-07T23:45:10.860Z,8.10
2023-04-07T23:47:59.737Z,8.10
2023-04-07T23:50:51.424Z,8.10
2023-04-07T23:53:40.105Z,8.20
2023-04-07T23:56:30.296Z,8.20
2023-04-07T23:59:19.107Z,8.00
